createdAt,value
2019-04-26T00:00:14.964Z,1.90
2019-04-26T00:02:45.958Z,2.03
2019-04-26T00:05:14.654Z,1.90
2019-04-26T00:07:43.394Z,1.90
2019-04-26T00:10:16.789Z,1.67
2019-04-26T00:12:52.562Z,2.10
2019-04-26T00:15:38.817Z,2.00
2019-04-26T00:18:07.476Z,1.63
2019-04-26T00:20:35.917Z,1.50
2019-04-26T00:23:04.332Z,1.90
2019-04-26T00:25:32.845Z,2.03
2019-04-26T00:28:01.258Z,1.83
2019-04-26T00:30:29.785Z,2.13
2019-04-26T00:32:58.276Z,1.77
2019-04-26T00:35:26.704Z,1.90
2019-04-26T00:37:55.113Z,1.83
2019-04-26T00:40:23.639Z,1.60
2019-04-26T00:42:52.642Z,1.97
2019-04-26T00:45:21.625Z,1.73
2019-04-26T00:47:51.583Z,1.90
2019-04-26T00:50:21.294Z,1.70
2019-04-26T00:52:50.784Z,1.70
2019-04-26T00:55:21.849Z,1.87
2019-04-26T00:57:51.205Z,2.37
2019-04-26T01:00:21.498Z,2.00
2019-04-26T01:02:51.898Z,1.60
2019-04-26T01:05:20.897Z,1.80
2019-04-26T01:07:51.025Z,1.90
2019-04-26T01:10:19.675Z,1.90
2019-04-26T01:12:48.149Z,1.47
2019-04-26T01:15:18.832Z,1.97
2019-04-26T01:17:46.957Z,1.60
2019-04-26T01:20:17.386Z,1.70
2019-04-26T01:22:49.449Z,2.00
2019-04-26T01:25:44.929Z,2.20
2019-04-26T01:28:19.708Z,1.53
2019-04-26T01:30:48.654Z,1.50
2019-04-26T01:33:17.825Z,1.87
2019-04-26T01:35:47.884Z,2.03
2019-04-26T01:38:17.005Z,1.80
2019-04-26T01:40:47.125Z,1.70
2019-04-26T01:43:21.578Z,1.80
2019-04-26T01:45:55.080Z,1.90
2019-04-26T01:48:45.756Z,1.90
2019-04-26T01:51:24.292Z,2.10
2019-04-26T01:53:53.117Z,2.03
2019-04-26T01:56:25.127Z,1.93
2019-04-26T01:58:54.074Z,1.60
2019-04-26T02:01:27.484Z,1.40
2019-04-26T02:03:56.186Z,1.80
2019-04-26T02:06:29.066Z,1.70
2019-04-26T02:08:55.277Z,1.73
2019-04-26T02:11:24.993Z,1.33
2019-04-26T02:13:53.664Z,1.33
2019-04-26T02:16:23.637Z,1.53
2019-04-26T02:18:52.210Z,1.33
2019-04-26T02:21:26.367Z,1.43
2019-04-26T02:23:57.110Z,1.83
2019-04-26T02:26:32.623Z,1.50
2019-04-26T02:29:03.761Z,1.53
2019-04-26T02:31:33.689Z,1.40
2019-04-26T02:34:04.013Z,1.63
2019-04-26T02:36:53.042Z,1.80
2019-04-26T02:39:06.205Z,1.50
2019-04-26T02:41:35.791Z,1.60
2019-04-26T02:44:11.343Z,1.30
2019-04-26T02:46:46.587Z,1.60
2019-04-26T02:49:17.343Z,1.43
2019-04-26T02:51:51.681Z,1.40
2019-04-26T02:54:29.062Z,1.63
2019-04-26T02:57:00.156Z,1.50
2019-04-26T02:59:38.755Z,1.57
2019-04-26T03:02:10.465Z,1.67
2019-04-26T03:04:42.317Z,1.70
2019-04-26T03:07:13.792Z,1.60
2019-04-26T03:09:44.591Z,2.10
2019-04-26T03:12:18.228Z,1.63
2019-04-26T03:14:51.399Z,1.80
2019-04-26T03:17:24.520Z,1.30
2019-04-26T03:20:03.225Z,1.57
2019-04-26T03:22:39.389Z,1.50
2019-04-26T03:25:27.165Z,1.60
2019-04-26T03:27:58.656Z,1.57
2019-04-26T03:30:38.129Z,1.63
2019-04-26T03:33:34.138Z,1.60
2019-04-26T03:36:18.607Z,1.73
2019-04-26T03:39:03.352Z,1.40
2019-04-26T03:41:41.054Z,1.60
2019-04-26T03:44:21.396Z,1.50
2019-04-26T03:46:52.906Z,1.50
2019-04-26T03:49:45.648Z,1.90
2019-04-26T03:52:19.337Z,2.07
2019-04-26T03:54:50.829Z,1.67
2019-04-26T03:57:29.727Z,1.50
2019-04-26T04:00:05.531Z,1.47
2019-04-26T04:02:45.555Z,1.40
2019-04-26T04:05:19.506Z,1.40
2019-04-26T04:07:51.597Z,1.80
2019-04-26T04:10:25.932Z,1.80
2019-04-26T04:13:20.194Z,1.57
2019-04-26T04:15:53.570Z,1.83
2019-04-26T04:18:28.161Z,1.80
2019-04-26T04:21:30.545Z,1.60
2019-04-26T04:24:04.667Z,1.50
2019-04-26T04:26:36.207Z,1.63
2019-04-26T04:29:42.578Z,1.80
2019-04-26T04:32:24.236Z,1.57
2019-04-26T04:34:55.673Z,1.77
2019-04-26T04:37:27.206Z,1.53
2019-04-26T04:40:08.769Z,1.97
2019-04-26T04:43:02.733Z,1.83
2019-04-26T04:46:11.637Z,1.80
2019-04-26T04:49:25.063Z,2.20
2019-04-26T04:52:23.694Z,2.17
2019-04-26T04:55:08.116Z,2.33
2019-04-26T04:58:06.540Z,2.07
2019-04-26T05:01:16.509Z,2.37
2019-04-26T05:03:53.856Z,2.10
2019-04-26T05:06:35.376Z,2.80
2019-04-26T05:09:07.267Z,2.20
2019-04-26T05:11:57.917Z,2.43
2019-04-26T05:14:50.171Z,2.10
2019-04-26T05:17:36.387Z,2.50
2019-04-26T05:20:29.020Z,2.50
2019-04-26T05:23:18.026Z,2.00
2019-04-26T05:26:40.504Z,2.70
2019-04-26T05:29:37.540Z,2.30
2019-04-26T05:32:23.905Z,2.23
2019-04-26T05:35:42.025Z,2.53
2019-04-26T05:38:18.716Z,2.07
2019-04-26T05:40:58.859Z,2.07
2019-04-26T05:43:40.579Z,1.97
2019-04-26T05:46:31.626Z,1.80
2019-04-26T05:49:19.513Z,2.10
2019-04-26T05:52:17.781Z,2.30
2019-04-26T05:55:06.049Z,2.27
2019-04-26T05:58:00.192Z,2.30
2019-04-26T06:00:33.353Z,1.30
2019-04-26T06:03:27.345Z,1.93
2019-04-26T06:06:23.837Z,1.53
2019-04-26T06:09:20.548Z,1.67
2019-04-26T06:11:56.668Z,1.40
2019-04-26T06:14:56.823Z,1.70
2019-04-26T06:18:01.822Z,1.73
2019-04-26T06:20:52.510Z,1.27
2019-04-26T06:23:35.857Z,1.47
2019-04-26T06:26:32.861Z,1.70
2019-04-26T06:29:06.991Z,2.40
2019-04-26T06:31:47.433Z,1.50
2019-04-26T06:34:24.905Z,1.20
2019-04-26T06:37:02.148Z,1.63
2019-04-26T06:39:42.592Z,1.30
2019-04-26T06:42:25.666Z,1.33
2019-04-26T06:45:10.618Z,1.40
2019-04-26T06:48:22.681Z,1.30
2019-04-26T06:51:05.526Z,1.03
2019-04-26T06:53:42.621Z,1.40
2019-04-26T06:56:15.802Z,1.43
2019-04-26T06:59:09.657Z,1.20
2019-04-26T07:01:59.147Z,1.20
2019-04-26T07:04:46.971Z,1.20
2019-04-26T07:07:34.732Z,1.10
2019-04-26T07:10:22.408Z,1.10
2019-04-26T07:13:09.746Z,1.30
2019-04-26T07:15:43.741Z,1.33
2019-04-26T07:18:24.172Z,1.10
2019-04-26T07:21:14.317Z,1.37
2019-04-26T07:23:59.268Z,1.33
2019-04-26T07:26:46.782Z,1.80
2019-04-26T07:29:42.363Z,1.90
2019-04-26T07:32:44.905Z,1.47
2019-04-26T07:35:18.109Z,1.53
2019-04-26T07:38:16.539Z,1.30
2019-04-26T07:41:09.351Z,1.63
2019-04-26T07:44:00.998Z,1.50
2019-04-26T07:46:41.726Z,1.43
2019-04-26T07:49:16.031Z,1.40
2019-04-26T07:52:21.781Z,1.60
2019-04-26T07:55:10.790Z,1.50
2019-04-26T07:58:08.802Z,1.30
2019-04-26T08:00:47.964Z,1.13
2019-04-26T08:03:44.849Z,1.53
2019-04-26T08:06:19.051Z,1.20
2019-04-26T08:08:53.461Z,1.20
2019-04-26T08:11:30.644Z,1.47
2019-04-26T08:14:22.993Z,1.20
2019-04-26T08:17:18.196Z,1.43
2019-04-26T08:19:58.918Z,1.20
2019-04-26T08:22:32.449Z,1.40
2019-04-26T08:25:01.160Z,1.50
2019-04-26T08:27:32.189Z,1.30
2019-04-26T08:30:10.100Z,1.67
2019-04-26T08:32:37.373Z,1.47
2019-04-26T08:35:16.889Z,1.60
2019-04-26T08:37:47.135Z,1.60
2019-04-26T08:40:26.522Z,1.60
2019-04-26T08:42:53.397Z,2.70
2019-04-26T08:45:35.492Z,3.00
2019-04-26T08:48:12.891Z,2.27
2019-04-26T08:50:46.936Z,1.57
2019-04-26T08:53:17.443Z,1.30
2019-04-26T08:55:47.813Z,1.33
2019-04-26T08:58:19.332Z,1.47
2019-04-26T09:00:51.631Z,1.37
2019-04-26T09:03:38.920Z,1.63
2019-04-26T09:06:14.546Z,1.50
2019-04-26T09:08:45.604Z,1.30
2019-04-26T09:11:24.091Z,1.43
2019-04-26T09:13:49.950Z,1.27
2019-04-26T09:16:19.711Z,1.77
2019-04-26T09:18:54.323Z,1.50
2019-04-26T09:21:20.590Z,1.10
2019-04-26T09:24:08.087Z,1.40
2019-04-26T09:26:46.672Z,1.47
2019-04-26T09:29:35.155Z,1.27
2019-04-26T09:32:11.252Z,1.40
2019-04-26T09:34:42.671Z,0.93
2019-04-26T09:37:11.472Z,1.10
2019-04-26T09:39:41.727Z,1.00
2019-04-26T09:42:27.982Z,1.10
2019-04-26T09:45:01.091Z,1.10
2019-04-26T09:47:36.984Z,1.10
2019-04-26T09:50:11.261Z,1.00
2019-04-26T09:52:41.692Z,1.00
2019-04-26T09:55:10.352Z,1.10
2019-04-26T09:57:38.779Z,1.20
2019-04-26T10:00:10.443Z,0.93
2019-04-26T10:02:40.500Z,1.20
2019-04-26T10:05:11.962Z,0.90
2019-04-26T10:07:39.420Z,1.20
2019-04-26T10:10:08.540Z,1.13
2019-04-26T10:12:47.593Z,1.10
2019-04-26T10:15:29.553Z,1.50
2019-04-26T10:17:58.657Z,1.10
2019-04-26T10:20:27.179Z,1.50
2019-04-26T10:22:55.752Z,1.20
2019-04-26T10:25:24.264Z,1.20
2019-04-26T10:27:52.845Z,1.10
2019-04-26T10:30:21.373Z,1.20
2019-04-26T10:32:49.853Z,1.20
2019-04-26T10:35:21.728Z,1.10
2019-04-26T10:37:49.277Z,1.00
2019-04-26T10:40:18.363Z,1.10
2019-04-26T10:42:46.779Z,1.07
2019-04-26T10:45:16.353Z,1.10
2019-04-26T10:47:44.871Z,1.03
2019-04-26T10:50:13.753Z,1.60
2019-04-26T10:52:49.496Z,1.23
2019-04-26T10:55:23.291Z,1.50
2019-04-26T10:58:02.357Z,1.30
2019-04-26T11:00:32.616Z,1.67
2019-04-26T11:03:04.560Z,1.50
2019-04-26T11:05:31.337Z,2.70
2019-04-26T11:07:59.779Z,1.20
2019-04-26T11:10:29.277Z,1.30
2019-04-26T11:12:57.664Z,1.20
2019-04-26T11:15:29.118Z,1.53
2019-04-26T11:17:56.395Z,1.90
2019-04-26T11:20:24.900Z,1.43
2019-04-26T11:22:53.348Z,1.93
2019-04-26T11:25:24.659Z,1.70
2019-04-26T11:27:52.164Z,1.90
2019-04-26T11:30:21.283Z,1.67
2019-04-26T11:32:49.876Z,1.93
2019-04-26T11:35:18.351Z,1.00
2019-04-26T11:37:50.552Z,0.90
2019-04-26T11:40:17.233Z,1.30
2019-04-26T11:42:45.978Z,1.13
2019-04-26T11:45:16.277Z,0.90
2019-04-26T11:47:55.396Z,1.30
2019-04-26T11:50:16.199Z,1.30
2019-04-26T11:52:44.979Z,0.90
2019-04-26T11:55:14.859Z,1.40
2019-04-26T11:57:43.730Z,1.20
2019-04-26T12:00:15.967Z,1.60
2019-04-26T12:02:46.292Z,1.10
2019-04-26T12:05:19.351Z,1.00
2019-04-26T12:07:58.580Z,1.50
2019-04-26T12:10:27.316Z,1.10
2019-04-26T12:13:05.124Z,1.27
2019-04-26T12:15:30.568Z,1.50
2019-04-26T12:17:58.668Z,1.00
2019-04-26T12:20:26.952Z,1.20
2019-04-26T12:22:56.557Z,1.30
2019-04-26T12:25:24.979Z,1.20
2019-04-26T12:27:53.718Z,1.20
2019-04-26T12:30:26.406Z,1.10
2019-04-26T12:32:52.534Z,1.37
2019-04-26T12:35:20.941Z,1.10
2019-04-26T12:37:50.698Z,1.00
2019-04-26T12:40:19.656Z,1.00
2019-04-26T12:42:48.397Z,1.10
2019-04-26T12:45:21.488Z,1.10
2019-04-26T12:47:51.588Z,1.00
2019-04-26T12:50:20.156Z,0.90
2019-04-26T12:52:51.498Z,1.10
2019-04-26T12:55:20.213Z,1.40
2019-04-26T12:57:48.726Z,2.00
2019-04-26T13:00:19.245Z,2.03
2019-04-26T13:02:50.251Z,1.10
2019-04-26T13:05:18.944Z,0.90
2019-04-26T13:07:49.677Z,1.23
2019-04-26T13:10:35.501Z,0.80
2019-04-26T13:13:12.078Z,1.13
2019-04-26T13:15:53.591Z,1.50
2019-04-26T13:18:22.110Z,1.10
2019-04-26T13:20:50.518Z,1.40
2019-04-26T13:23:18.985Z,1.30
2019-04-26T13:25:47.428Z,1.10
2019-04-26T13:28:20.236Z,1.00
2019-04-26T13:30:46.080Z,1.90
2019-04-26T13:33:14.592Z,1.73
2019-04-26T13:35:45.424Z,1.90
2019-04-26T13:38:13.457Z,1.40
2019-04-26T13:40:42.134Z,0.93
2019-04-26T13:43:10.576Z,1.10
2019-04-26T13:45:49.422Z,1.10
2019-04-26T13:48:34.296Z,1.27
2019-04-26T13:51:15.913Z,1.20
2019-04-26T13:53:44.375Z,1.00
2019-04-26T13:56:12.810Z,1.00
2019-04-26T13:58:41.336Z,1.00
2019-04-26T14:01:14.422Z,1.30
2019-04-26T14:03:40.929Z,1.50
2019-04-26T14:06:09.425Z,1.03
2019-04-26T14:08:37.883Z,1.40
2019-04-26T14:11:06.360Z,1.20
2019-04-26T14:13:34.895Z,1.10
2019-04-26T14:16:05.084Z,1.40
2019-04-26T14:18:34.658Z,1.10
2019-04-26T14:21:03.810Z,1.30
2019-04-26T14:23:36.646Z,1.20
2019-04-26T14:26:09.584Z,1.10
2019-04-26T14:28:38.058Z,1.03
2019-04-26T14:31:06.557Z,1.30
2019-04-26T14:33:34.983Z,1.10
2019-04-26T14:36:16.668Z,1.10
2019-04-26T14:38:39.478Z,0.97
2019-04-26T14:41:04.779Z,1.00
2019-04-26T14:43:40.522Z,1.30
2019-04-26T14:46:03.736Z,1.27
2019-04-26T14:48:36.776Z,1.20
2019-04-26T14:51:08.066Z,1.20
2019-04-26T14:53:36.308Z,1.20
2019-04-26T14:56:02.703Z,1.20
2019-04-26T14:58:33.605Z,1.00
2019-04-26T15:01:15.190Z,1.00
2019-04-26T15:03:45.261Z,1.10
2019-04-26T15:06:20.510Z,1.10
2019-04-26T15:08:48.908Z,1.20
2019-04-26T15:11:17.473Z,1.00
2019-04-26T15:13:45.925Z,1.20
2019-04-26T15:16:14.517Z,1.40
2019-04-26T15:18:43.050Z,1.20
2019-04-26T15:21:12.907Z,0.87
2019-04-26T15:23:41.472Z,1.00
2019-04-26T15:26:09.925Z,1.10
2019-04-26T15:28:38.488Z,0.80
2019-04-26T15:31:06.946Z,1.10
2019-04-26T15:33:36.002Z,1.10
2019-04-26T15:36:06.273Z,0.80
2019-04-26T15:38:41.385Z,1.20
2019-04-26T15:41:11.509Z,1.07
2019-04-26T15:43:39.115Z,0.87
2019-04-26T15:46:12.348Z,1.00
2019-04-26T15:49:04.723Z,1.20
2019-04-26T15:51:33.451Z,1.40
2019-04-26T15:54:01.905Z,0.80
2019-04-26T15:56:30.461Z,1.10
2019-04-26T15:58:59.064Z,1.20
2019-04-26T16:01:27.520Z,1.10
2019-04-26T16:03:55.954Z,4.40
2019-04-26T16:06:24.423Z,1.80
2019-04-26T16:08:52.826Z,1.20
2019-04-26T16:11:21.277Z,1.40
2019-04-26T16:13:52.141Z,1.30
2019-04-26T16:16:20.643Z,1.00
2019-04-26T16:18:55.502Z,2.10
2019-04-26T16:21:21.808Z,1.10
2019-04-26T16:23:52.006Z,1.53
2019-04-26T16:26:20.640Z,1.10
2019-04-26T16:29:05.698Z,1.00
2019-04-26T16:31:42.148Z,1.70
2019-04-26T16:34:11.602Z,1.40
2019-04-26T16:36:45.020Z,1.20
2019-04-26T16:39:13.835Z,1.23
2019-04-26T16:41:42.582Z,1.20
2019-04-26T16:44:12.874Z,1.50
2019-04-26T16:46:43.481Z,1.37
2019-04-26T16:49:14.075Z,0.90
2019-04-26T16:51:43.586Z,1.30
2019-04-26T16:54:20.856Z,1.00
2019-04-26T16:56:43.844Z,1.20
2019-04-26T16:59:14.425Z,1.00
2019-04-26T17:01:47.185Z,1.20
2019-04-26T17:04:14.154Z,1.20
2019-04-26T17:06:44.766Z,1.00
2019-04-26T17:09:14.355Z,1.30
2019-04-26T17:11:43.538Z,1.40
2019-04-26T17:14:13.215Z,1.40
2019-04-26T17:16:44.019Z,1.07
2019-04-26T17:19:13.669Z,1.23
2019-04-26T17:21:43.908Z,2.63
2019-04-26T17:24:20.009Z,1.70
2019-04-26T17:26:50.181Z,1.30
2019-04-26T17:29:18.722Z,1.40
2019-04-26T17:31:47.265Z,1.30
2019-04-26T17:34:15.843Z,1.23
2019-04-26T17:36:46.284Z,1.27
2019-04-26T17:39:17.181Z,1.17
2019-04-26T17:41:50.519Z,1.30
2019-04-26T17:44:15.172Z,1.10
2019-04-26T17:46:43.708Z,1.10
2019-04-26T17:49:12.148Z,1.13
2019-04-26T17:51:44.352Z,1.30
2019-04-26T17:54:41.035Z,1.10
2019-04-26T17:56:42.681Z,1.03
2019-04-26T17:59:24.175Z,1.20
2019-04-26T18:01:47.454Z,1.30
2019-04-26T18:04:11.570Z,1.33
2019-04-26T18:06:40.403Z,1.30
2019-04-26T18:09:13.240Z,1.40
2019-04-26T18:11:41.136Z,1.30
2019-04-26T18:14:20.737Z,1.83
2019-04-26T18:16:42.740Z,1.40
2019-04-26T18:19:15.638Z,1.80
2019-04-26T18:21:49.478Z,1.60
2019-04-26T18:24:15.964Z,2.03
2019-04-26T18:26:44.485Z,2.73
2019-04-26T18:29:13.169Z,2.60
2019-04-26T18:31:43.684Z,2.33
2019-04-26T18:34:12.792Z,2.40
2019-04-26T18:36:42.893Z,2.50
2019-04-26T18:39:11.634Z,2.30
2019-04-26T18:41:40.246Z,2.60
2019-04-26T18:44:08.721Z,2.43
2019-04-26T18:46:40.586Z,2.30
2019-04-26T18:49:11.274Z,2.50
2019-04-26T18:51:43.313Z,2.43
2019-04-26T18:54:14.517Z,3.30
2019-04-26T18:56:42.924Z,3.23
2019-04-26T18:59:12.921Z,2.90
2019-04-26T19:01:42.084Z,3.27
2019-04-26T19:04:13.559Z,4.00
2019-04-26T19:06:42.405Z,3.00
2019-04-26T19:09:12.182Z,4.00
2019-04-26T19:11:43.836Z,4.03
2019-04-26T19:14:31.741Z,3.70
2019-04-26T19:17:02.215Z,7.10
2019-04-26T19:19:38.322Z,7.17
2019-04-26T19:22:09.494Z,6.00
2019-04-26T19:24:38.770Z,4.10
2019-04-26T19:27:07.409Z,4.93
2019-04-26T19:29:36.296Z,4.27
2019-04-26T19:32:05.465Z,5.07
2019-04-26T19:34:33.988Z,5.63
2019-04-26T19:37:03.386Z,5.53
2019-04-26T19:39:35.405Z,6.30
2019-04-26T19:42:02.575Z,5.20
2019-04-26T19:44:31.591Z,5.70
2019-04-26T19:47:13.832Z,5.10
2019-04-26T19:49:43.976Z,4.80
2019-04-26T19:52:20.112Z,4.93
2019-04-26T19:54:51.300Z,3.70
2019-04-26T19:57:24.740Z,4.43
2019-04-26T19:59:53.193Z,3.60
2019-04-26T20:02:21.712Z,3.93
2019-04-26T20:04:51.384Z,5.40
2019-04-26T20:07:19.906Z,5.80
2019-04-26T20:09:48.358Z,3.93
2019-04-26T20:12:16.790Z,2.87
2019-04-26T20:14:50.677Z,2.90
2019-04-26T20:17:19.978Z,3.00
2019-04-26T20:19:47.684Z,2.73
2019-04-26T20:22:15.776Z,2.60
2019-04-26T20:24:44.237Z,2.20
2019-04-26T20:27:15.665Z,2.60
2019-04-26T20:29:47.309Z,2.90
2019-04-26T20:32:21.139Z,2.33
2019-04-26T20:34:49.509Z,2.40
2019-04-26T20:37:22.817Z,2.00
2019-04-26T20:39:55.900Z,2.20
2019-04-26T20:42:19.011Z,2.37
2019-04-26T20:44:51.049Z,1.93
2019-04-26T20:47:17.889Z,2.03
2019-04-26T20:49:49.607Z,2.33
2019-04-26T20:52:20.785Z,2.50
2019-04-26T20:54:52.634Z,2.57
2019-04-26T20:57:17.028Z,2.33
2019-04-26T20:59:45.526Z,2.80
2019-04-26T21:02:16.264Z,3.00
2019-04-26T21:04:46.107Z,2.37
2019-04-26T21:07:14.461Z,2.27
2019-04-26T21:09:43.534Z,2.57
2019-04-26T21:12:15.883Z,2.03
2019-04-26T21:14:44.586Z,2.03
2019-04-26T21:17:13.450Z,1.83
2019-04-26T21:19:42.130Z,1.87
2019-04-26T21:22:10.711Z,2.33
2019-04-26T21:24:43.554Z,2.30
2019-04-26T21:27:16.670Z,2.00
2019-04-26T21:29:52.413Z,2.47
2019-04-26T21:32:26.215Z,2.20
2019-04-26T21:34:56.242Z,2.07
2019-04-26T21:37:26.389Z,1.90
2019-04-26T21:40:10.975Z,2.23
2019-04-26T21:42:39.545Z,2.00
2019-04-26T21:45:08.302Z,2.37
2019-04-26T21:47:37.208Z,2.10
2019-04-26T21:50:06.781Z,1.90
2019-04-26T21:52:35.460Z,1.73
2019-04-26T21:55:06.516Z,1.77
2019-04-26T21:57:35.107Z,2.30
2019-04-26T22:00:06.570Z,2.10
2019-04-26T22:02:37.435Z,1.80
2019-04-26T22:05:08.070Z,1.90
2019-04-26T22:07:39.433Z,2.40
2019-04-26T22:10:20.415Z,2.63
2019-04-26T22:12:49.024Z,2.30
2019-04-26T22:15:24.867Z,2.30
2019-04-26T22:17:55.004Z,2.23
2019-04-26T22:20:25.149Z,2.03
2019-04-26T22:22:57.863Z,2.40
2019-04-26T22:25:27.979Z,2.70
2019-04-26T22:28:00.301Z,2.40
2019-04-26T22:30:29.536Z,2.50
2019-04-26T22:32:58.563Z,2.30
2019-04-26T22:35:27.219Z,2.50
2019-04-26T22:37:55.621Z,2.63
2019-04-26T22:40:24.151Z,3.07
2019-04-26T22:42:54.431Z,2.90
2019-04-26T22:45:27.948Z,2.60
2019-04-26T22:48:03.954Z,2.90
2019-04-26T22:50:33.528Z,3.23
2019-04-26T22:53:03.910Z,2.70
2019-04-26T22:55:33.385Z,3.40
2019-04-26T22:58:03.259Z,2.80
2019-04-26T23:00:33.681Z,3.33
2019-04-26T23:03:03.718Z,3.43
2019-04-26T23:05:35.618Z,3.20
2019-04-26T23:08:03.317Z,3.30
2019-04-26T23:10:34.080Z,2.63
2019-04-26T23:13:07.629Z,3.50
2019-04-26T23:15:39.297Z,3.03
2019-04-26T23:18:13.766Z,3.10
2019-04-26T23:20:44.087Z,3.20
2019-04-26T23:23:13.477Z,3.43
2019-04-26T23:25:43.516Z,3.80
2019-04-26T23:28:11.946Z,3.87
2019-04-26T23:30:40.436Z,3.50
2019-04-26T23:33:08.904Z,3.90
2019-04-26T23:35:43.294Z,3.40
2019-04-26T23:38:07.471Z,3.30
2019-04-26T23:40:35.984Z,3.67
2019-04-26T23:43:04.544Z,3.77
2019-04-26T23:45:33.392Z,4.07
2019-04-26T23:48:03.410Z,4.23
2019-04-26T23:50:33.965Z,3.70
2019-04-26T23:53:02.993Z,4.07
2019-04-26T23:55:31.576Z,4.13
2019-04-26T23:58:00.018Z,4.00
